Flight Track Log - Related Links

Times and Time Zones

All times are in EDT time to prevent confusion due to time zone crossing. See the N1250V flight status page for this flight to view local times or setup timezone preferences in your user account.

Time Position Orientation Groundspeed Altitude Reporting Facility
EDT Latitude Longitude Course Direction KTS MPH feet Rate Location/Type
Wed 05:58:05 PM 41.6972 -85.9550 140° Southeast 173 199 3,600  Level Chicago Center
Wed 05:59:07 PM 41.6575 -85.9119 141° Southeast 180 207 6,100 2,448 Climbing Chicago Center
Wed 06:00:10 PM 41.6150 -85.8628 139° Southeast 197 227 8,700 2,352 Climbing Chicago Center
Wed 06:01:12 PM 41.5706 -85.8156 142° Southeast 202 232 11,000 2,371 Climbing Chicago Center
Wed 06:02:14 PM 41.5125 -85.7558 142° Southeast 218 251 13,600 2,129 Climbing Chicago Center
Wed 06:03:00 PM 41.3573 -85.5998 140° Southeast  Level FlightAware Approximate
Wed 06:03:16 PM 41.4650 -85.7036 141° Southeast 221 254 15,400  Level Chicago Center
Wed 06:04:18 PM 41.4147 -85.6503 141° Southeast 229 264 16,700 823 Climbing Chicago Center
Wed 06:05:20 PM 41.3581 -85.5897 141° Southeast 261 300 17,100 192 Climbing Chicago Center
Wed 06:06:23 PM 41.2778 -85.5042 141° Southeast 307 353 17,100  Level Chicago Center
Wed 06:07:25 PM 41.2086 -85.4297 141° Southeast 318 366 17,100  Level Chicago Center
Wed 06:08:27 PM 41.1378 -85.3564 142° Southeast 321 369 17,100 -48 Level Chicago Center
Wed 06:09:29 PM 41.0650 -85.2789 141° Southeast 331 381 17,000 -48 Descending Chicago Center
Wed 06:10:31 PM 40.9939 -85.2025 141° Southeast 332 382 17,000  Level Chicago Center
Wed 06:11:33 PM 40.9219 -85.0903 130° Southeast 334 384 17,000  Level Chicago Center
Wed 06:12:35 PM 40.8650 -84.9958 129° Southeast 334 384 17,000  Level Chicago Center
Wed 06:13:38 PM 40.8086 -84.9011 128° Southeast 331 381 17,000  Level Chicago Center
Wed 06:14:40 PM 40.7525 -84.8069 128° Southeast 330 380 17,000  Level Chicago Center
Wed 06:15:42 PM 40.6942 -84.7211 132° Southeast 318 366 17,000  Level Chicago Center
Wed 06:16:44 PM 40.6333 -84.6439 136° Southeast 310 357 17,000  Level Chicago Center
Wed 06:17:27 PM 40.5767 -84.5736 137° Southeast 312 359 17,000  Level Indianapolis Center
Wed 06:18:29 PM 40.5144 -84.4928 135° Southeast 312 359 17,000 -76 Level Indianapolis Center
Wed 06:18:46 PM 40.4928 -84.4653 136° Southeast 314 361 16,900 -111 Descending Indianapolis Center
Wed 06:19:23 PM 40.4458 -84.4317 151° Southeast 314 361 16,900  Level Indianapolis Center
Wed 06:20:23 PM 40.3647 -84.4225 175° South 304 350 16,900 86 Level Indianapolis Center
Wed 06:20:33 PM 40.3597 -84.4225 180° South 304 350 17,000  Climbing Indianapolis Center
Wed 06:21:24 PM 40.2783 -84.4231 180° South 307 353 16,900  Descending Indianapolis Center
Wed 06:21:35 PM 40.2750 -84.4222 169° South 304 350 17,000  Climbing Indianapolis Center
Wed 06:22:25 PM 40.1922 -84.4211 179° South 314 361 16,900  Descending Indianapolis Center
Wed 06:22:37 PM 40.1872 -84.4217 185° South 309 356 17,000  Climbing Indianapolis Center
Wed 06:23:26 PM 40.1078 -84.4222 180° South 304 350 16,900 -97 Descending Indianapolis Center
Wed 06:23:39 PM 40.0861 -84.4225 181° South 311 358 16,900 -436 Level Indianapolis Center
Wed 06:24:21 PM 40.0306 -84.4356 190° South 303 349 16,500 -590 Descending Indianapolis Center
Wed 06:24:40 PM 40.0047 -84.4439 194° South 304 350 16,300 -1,111 Descending Indianapolis Center
Wed 06:25:42 PM 39.9269 -84.4644 191° South 295 339 15,000 -2,000 Descending Indianapolis Center
Wed 06:26:22 PM 39.8700 -84.4800 192° South 280 322 12,900 -2,613 Descending Indianapolis Center
Wed 06:26:44 PM 39.8514 -84.4839 189° South 285 328 12,300 -2,571 Descending Indianapolis Center
Wed 06:27:46 PM 39.7717 -84.4967 187° South 285 328 9,300 -3,000 Descending Indianapolis Center
Wed 06:28:48 PM 39.6944 -84.4997 182° South 284 327 6,100 -2,226 Descending Indianapolis Center
Wed 06:29:50 PM 39.6131 -84.5236 193° South 258 297 4,700 -968 Descending Indianapolis Center
Wed 06:30:52 PM 39.5403 -84.5200 178° South 259 298 4,100 -439 Descending Indianapolis Center
Wed 06:31:53 PM 39.4706 -84.5042 170° South 260 299 3,800 -537 Descending Indianapolis Center
Wed 06:32:55 PM 39.4000 -84.4875 170° South 258 297 3,000 -387 Descending Indianapolis Center
Wed 06:33:57 PM 39.3317 -84.4703 169° South 258 297 3,000 -48 Level Indianapolis Center
Wed 06:34:59 PM 39.2750 -84.4394 157° South 236 272 2,900 -343 Descending Indianapolis Center
Wed 06:36:52 PM 39.1667 -84.3833 158° South 148 170 2,000 -590 Descending Cincinnati TRACON
Wed 06:37:52 PM 39.1333 -84.4000 201° Southwest 99 114 1,200 -800 Descending Cincinnati TRACON
Wed 06:39:00 PM 39.1000 -84.4167 195° South  Level FlightAware Approximate
Wed 06:46:00 PM 39.1033 -84.4186 195° South  Level Estimated

Login

Don't have an account? Register now (free) for customized features, flight alerts, and more!